Time;durP1;ratioP1;P1;durP2;ratioP2;P2;SDS_P1;SDS_P2;PMS_P1;PMS_P2;Temp;Humidity;BMP_temperature;BMP_pressure;BME280_temperature;BME280_humidity;BME280_pressure;Samples;Min_cycle;Max_cycle;Signal;HPM_P1;HPM_P2
2024/01/20 00:00:46;;;;;;;9.97;9.77;;;-5.40;99.90;;;;;;5079349;28;21051;-67
2024/01/20 00:03:13;;;;;;;11.10;10.80;;;-5.50;99.90;;;;;;5075476;28;20466;-68
2024/01/20 00:05:41;;;;;;;10.90;10.60;;;-5.50;99.90;;;;;;5080537;28;20454;-68
2024/01/20 00:08:08;;;;;;;10.10;9.90;;;-5.20;99.90;;;;;;5075603;28;20464;-68
2024/01/20 00:10:34;;;;;;;9.20;9.00;;;-5.10;99.90;;;;;;5084883;28;20498;-70
2024/01/20 00:13:03;;;;;;;9.83;9.63;;;-5.00;99.90;;;;;;5081919;28;20471;-70
2024/01/20 00:15:30;;;;;;;9.83;9.63;;;-4.90;99.90;;;;;;5078551;28;20881;-68
2024/01/20 00:17:57;;;;;;;10.43;10.23;;;-4.90;99.90;;;;;;5079259;28;21122;-68
2024/01/20 00:20:24;;;;;;;9.27;9.07;;;-4.90;99.90;;;;;;5086854;28;20460;-69
2024/01/20 00:22:52;;;;;;;9.03;8.83;;;-4.90;99.90;;;;;;5079357;28;20463;-68
2024/01/20 00:25:19;;;;;;;9.17;8.97;;;-4.90;99.90;;;;;;5082804;28;20462;-68
2024/01/20 00:27:46;;;;;;;9.43;9.23;;;-5.00;99.90;;;;;;5086206;28;20888;-68
2024/01/20 00:30:14;;;;;;;10.10;9.90;;;-4.90;99.90;;;;;;5075187;28;20562;-68
2024/01/20 00:32:41;;;;;;;10.13;9.93;;;-4.80;99.90;;;;;;5080033;28;21062;-68
2024/01/20 00:35:08;;;;;;;9.10;8.90;;;-4.90;99.90;;;;;;5083482;28;20461;-68
2024/01/20 00:37:36;;;;;;;9.43;9.23;;;-4.90;99.90;;;;;;5081598;28;20466;-67
2024/01/20 00:40:04;;;;;;;9.60;9.40;;;-5.10;99.90;;;;;;5081118;28;20945;-68
2024/01/20 00:42:31;;;;;;;9.57;9.37;;;-5.20;99.90;;;;;;5081829;28;20448;-68
2024/01/20 00:44:58;;;;;;;10.37;10.17;;;-5.30;99.90;;;;;;5081169;28;20935;-68
2024/01/20 00:47:27;;;;;;;11.17;10.87;;;-5.30;99.90;;;;;;5068907;28;22057;-68
2024/01/20 00:49:54;;;;;;;11.70;11.40;;;-5.10;99.90;;;;;;5080500;28;20832;-68
2024/01/20 00:52:21;;;;;;;10.10;9.90;;;-5.00;99.90;;;;;;5081434;28;21028;-68
2024/01/20 00:54:49;;;;;;;10.37;10.17;;;-5.00;99.90;;;;;;5087711;28;20582;-68
2024/01/20 00:57:16;;;;;;;10.20;10.00;;;-4.90;99.90;;;;;;5089950;28;20466;-69
2024/01/20 00:59:45;;;;;;;10.37;10.17;;;-5.10;99.90;;;;;;5086276;28;20469;-69
2024/01/20 01:02:12;;;;;;;11.10;10.80;;;-5.10;99.90;;;;;;5080032;28;20931;-68
2024/01/20 01:04:41;;;;;;;10.30;10.10;;;-5.00;99.90;;;;;;5086868;28;20455;-68
2024/01/20 01:07:08;;;;;;;9.13;8.93;;;-4.90;99.90;;;;;;5079900;28;20864;-69
2024/01/20 01:09:36;;;;;;;10.03;9.83;;;-4.90;99.90;;;;;;5085081;28;20467;-69
2024/01/20 01:12:03;;;;;;;9.43;9.23;;;-4.90;99.90;;;;;;5088132;28;20533;-69
2024/01/20 01:14:30;;;;;;;9.60;9.40;;;-4.90;99.90;;;;;;5082147;28;20476;-69
2024/01/20 01:16:57;;;;;;;9.63;9.43;;;-4.90;99.90;;;;;;5087756;28;20453;-69
2024/01/20 01:19:24;;;;;;;9.70;9.50;;;-4.90;99.90;;;;;;5081651;28;20467;-70
2024/01/20 01:21:53;;;;;;;10.23;10.03;;;-4.80;99.90;;;;;;5072354;28;20463;-70
2024/01/20 01:24:20;;;;;;;9.50;9.30;;;-4.70;99.90;;;;;;5077774;28;20534;-69
2024/01/20 01:26:47;;;;;;;9.63;9.43;;;-4.60;99.90;;;;;;5087076;28;20457;-70
2024/01/20 01:29:14;;;;;;;9.60;9.40;;;-4.60;99.90;;;;;;5081815;28;20990;-69
2024/01/20 01:31:41;;;;;;;9.77;9.57;;;-4.50;99.90;;;;;;5088619;28;20495;-70
2024/01/20 01:34:07;;;;;;;10.13;9.93;;;-4.50;99.90;;;;;;5080967;28;20469;-69
2024/01/20 01:36:34;;;;;;;10.10;9.90;;;-4.40;99.90;;;;;;5088597;28;20474;-69
2024/01/20 01:39:02;;;;;;;9.90;9.70;;;-4.30;99.90;;;;;;5076668;28;20469;-71
2024/01/20 01:41:29;;;;;;;9.53;9.33;;;-4.30;99.90;;;;;;5087616;28;20557;-68
2024/01/20 01:43:57;;;;;;;10.53;10.33;;;-4.50;99.90;;;;;;5080616;28;21171;-68
2024/01/20 01:46:26;;;;;;;10.17;9.97;;;-4.40;99.90;;;;;;5075964;28;20486;-68
2024/01/20 01:48:53;;;;;;;9.97;9.77;;;-4.40;99.90;;;;;;5082814;28;20558;-69
2024/01/20 01:51:21;;;;;;;9.83;9.63;;;-4.30;99.90;;;;;;5079266;28;20482;-69
2024/01/20 01:53:48;;;;;;;10.17;9.97;;;-4.30;99.90;;;;;;5080494;28;21274;-67
2024/01/20 01:56:19;;;;;;;10.30;10.10;;;-4.30;99.90;;;;;;5080402;28;21057;-68
2024/01/20 01:58:47;;;;;;;10.10;9.90;;;-4.30;99.90;;;;;;5084536;28;20954;-68
2024/01/20 02:01:14;;;;;;;10.97;10.67;;;-4.40;99.90;;;;;;5082904;28;20470;-69
2024/01/20 02:03:41;;;;;;;10.53;10.33;;;-4.40;99.90;;;;;;5084577;28;20950;-69
2024/01/20 02:06:08;;;;;;;10.47;10.27;;;-4.30;99.90;;;;;;5083432;28;20820;-68
2024/01/20 02:08:36;;;;;;;10.70;10.50;;;-4.40;99.90;;;;;;5078106;28;21028;-69
2024/01/20 02:11:03;;;;;;;10.20;10.00;;;-4.40;99.90;;;;;;5086585;28;20484;-68
2024/01/20 02:13:33;;;;;;;11.23;10.93;;;-4.40;99.90;;;;;;5081136;28;21075;-69
2024/01/20 02:16:01;;;;;;;10.50;10.30;;;-4.60;99.90;;;;;;5086917;28;20453;-68
2024/01/20 02:18:28;;;;;;;10.60;10.40;;;-4.80;99.90;;;;;;5083047;28;20461;-69
2024/01/20 02:20:55;;;;;;;10.60;10.40;;;-4.80;99.90;;;;;;5086855;28;21264;-69
2024/01/20 02:23:23;;;;;;;10.57;10.37;;;-4.80;99.90;;;;;;5083206;28;20462;-69
2024/01/20 02:25:50;;;;;;;10.43;10.23;;;-4.90;99.90;;;;;;5077031;28;20457;-68
2024/01/20 02:28:18;;;;;;;10.17;9.97;;;-5.00;99.90;;;;;;5086565;28;20460;-69
2024/01/20 02:30:46;;;;;;;11.33;11.03;;;-5.00;99.90;;;;;;5074674;28;21010;-69
2024/01/20 02:33:13;;;;;;;11.23;10.93;;;-5.00;99.90;;;;;;5083140;28;20515;-69
2024/01/20 02:35:40;;;;;;;10.90;10.60;;;-5.00;99.90;;;;;;5083895;28;20863;-70
2024/01/20 02:38:07;;;;;;;11.37;11.07;;;-5.00;99.90;;;;;;5080883;28;20883;-69
2024/01/20 02:40:35;;;;;;;10.47;10.27;;;-5.10;99.90;;;;;;5083649;28;20516;-69
2024/01/20 02:43:02;;;;;;;11.33;11.03;;;-5.30;99.90;;;;;;5079682;28;20533;-69
2024/01/20 02:45:29;;;;;;;10.67;10.43;;;-5.30;99.90;;;;;;5081325;28;20455;-69
2024/01/20 02:47:57;;;;;;;10.77;10.47;;;-5.40;99.90;;;;;;5086869;28;20484;-68
2024/01/20 02:50:24;;;;;;;11.17;10.87;;;-5.40;99.90;;;;;;5071517;28;20450;-68
2024/01/20 02:52:52;;;;;;;10.47;10.27;;;-5.50;99.90;;;;;;5071038;28;20493;-69
2024/01/20 02:55:19;;;;;;;10.30;10.10;;;-5.60;99.90;;;;;;5069193;28;20528;-69
2024/01/20 02:57:47;;;;;;;11.20;10.90;;;-5.60;99.90;;;;;;5069321;28;20458;-69
2024/01/20 03:00:14;;;;;;;11.27;10.97;;;-5.70;99.90;;;;;;5071065;28;20465;-68
2024/01/20 03:02:40;;;;;;;11.37;11.07;;;-5.60;99.90;;;;;;5071561;28;20952;-69
2024/01/20 03:05:08;;;;;;;11.43;11.13;;;-5.70;99.90;;;;;;5071059;28;20469;-69
2024/01/20 03:07:35;;;;;;;11.90;11.60;;;-5.80;99.90;;;;;;5071161;28;20986;-69
2024/01/20 03:10:03;;;;;;;11.87;11.57;;;-5.70;99.90;;;;;;5070692;28;20445;-69
2024/01/20 03:12:30;;;;;;;11.90;11.60;;;-5.60;99.90;;;;;;5071366;28;20512;-69
2024/01/20 03:14:58;;;;;;;12.30;11.93;;;-5.50;99.90;;;;;;5069566;28;20454;-70
2024/01/20 03:17:26;;;;;;;11.30;11.00;;;-5.50;99.90;;;;;;5069165;28;20471;-69
2024/01/20 03:19:52;;;;;;;10.97;10.67;;;-5.50;99.90;;;;;;5071314;28;20447;-69
2024/01/20 03:22:20;;;;;;;10.83;10.53;;;-5.40;99.90;;;;;;5071456;28;20938;-68
2024/01/20 03:24:48;;;;;;;11.67;11.37;;;-5.70;99.90;;;;;;5070800;28;20451;-68
2024/01/20 03:27:15;;;;;;;12.30;11.90;;;-6.40;99.90;;;;;;5071291;28;20456;-70
2024/01/20 03:29:42;;;;;;;12.87;12.47;;;-7.00;99.90;;;;;;5069572;28;20449;-69
2024/01/20 03:32:10;;;;;;;12.40;12.00;;;-7.00;99.90;;;;;;5069903;28;20495;-69
2024/01/20 03:34:38;;;;;;;12.80;12.40;;;-7.20;99.90;;;;;;5070797;28;20886;-69
2024/01/20 03:37:06;;;;;;;13.63;13.20;;;-7.30;99.90;;;;;;5070623;28;20454;-68
2024/01/20 03:39:33;;;;;;;13.13;12.73;;;-7.40;99.90;;;;;;5071152;28;20474;-69
2024/01/20 03:42:00;;;;;;;12.60;12.20;;;-7.10;99.90;;;;;;5070377;28;20459;-69
2024/01/20 03:44:28;;;;;;;12.43;12.03;;;-6.80;99.90;;;;;;5070539;28;20460;-69
2024/01/20 03:46:55;;;;;;;11.83;11.53;;;-6.50;99.90;;;;;;5069300;28;20901;-70
2024/01/20 03:49:23;;;;;;;11.73;11.43;;;-6.30;99.90;;;;;;5073615;28;20474;-70
2024/01/20 03:51:50;;;;;;;11.30;11.00;;;-6.20;99.90;;;;;;5082236;28;20478;-68
2024/01/20 03:54:17;;;;;;;11.67;11.37;;;-6.10;99.90;;;;;;5086173;28;20792;-69
2024/01/20 03:56:44;;;;;;;11.03;10.73;;;-6.00;99.90;;;;;;5086616;28;20656;-69
2024/01/20 03:59:12;;;;;;;10.83;10.53;;;-5.90;99.90;;;;;;5081063;28;20465;-68
2024/01/20 04:01:39;;;;;;;10.77;10.47;;;-6.00;99.90;;;;;;5078060;28;20466;-68
2024/01/20 04:04:06;;;;;;;11.20;10.90;;;-6.10;99.90;;;;;;5085938;28;20919;-70
2024/01/20 04:06:34;;;;;;;11.20;10.90;;;-6.10;99.90;;;;;;5083512;28;20459;-68
2024/01/20 04:09:01;;;;;;;11.20;10.90;;;-6.10;99.90;;;;;;5079991;28;20469;-68
2024/01/20 04:11:28;;;;;;;10.90;10.60;;;-6.20;99.90;;;;;;5079377;28;20498;-69
2024/01/20 04:13:57;;;;;;;11.20;10.90;;;-6.20;99.90;;;;;;5077023;28;20988;-69
2024/01/20 04:16:24;;;;;;;11.00;10.70;;;-6.00;99.90;;;;;;5080155;28;20489;-68
2024/01/20 04:18:50;;;;;;;11.13;10.83;;;-6.00;99.90;;;;;;5079356;28;20463;-69
2024/01/20 04:21:19;;;;;;;10.43;10.23;;;-6.00;99.90;;;;;;5083529;28;20477;-69
2024/01/20 04:23:47;;;;;;;11.43;11.13;;;-6.10;99.90;;;;;;5076906;28;20469;-69
2024/01/20 04:26:13;;;;;;;11.70;11.40;;;-6.10;99.90;;;;;;5077927;28;20467;-69
2024/01/20 04:28:40;;;;;;;11.70;11.40;;;-6.00;99.90;;;;;;5081958;28;20525;-69
2024/01/20 04:31:07;;;;;;;12.53;12.13;;;-5.90;99.90;;;;;;5079300;28;20468;-69
2024/01/20 04:33:34;;;;;;;11.93;11.63;;;-5.80;99.90;;;;;;5084549;28;20467;-69
2024/01/20 04:36:02;;;;;;;11.87;11.57;;;-5.80;99.90;;;;;;5089097;28;20462;-69
2024/01/20 04:38:29;;;;;;;12.27;11.87;;;-6.10;99.90;;;;;;5087442;28;20462;-68
2024/01/20 04:40:59;;;;;;;12.07;11.77;;;-6.40;99.90;;;;;;5087051;28;20718;-69
2024/01/20 04:43:25;;;;;;;11.97;11.67;;;-6.50;99.90;;;;;;5083439;28;20914;-68
2024/01/20 04:45:52;;;;;;;12.03;11.73;;;-6.60;99.90;;;;;;5084339;28;20956;-68
2024/01/20 04:48:19;;;;;;;12.07;11.77;;;-6.40;99.90;;;;;;5088392;28;20478;-69
2024/01/20 04:50:46;;;;;;;12.03;11.73;;;-6.20;99.90;;;;;;5083113;28;20462;-69
2024/01/20 04:53:14;;;;;;;11.97;11.67;;;-6.10;99.90;;;;;;5081284;28;20502;-68
2024/01/20 04:55:42;;;;;;;11.87;11.57;;;-6.20;99.90;;;;;;5080186;28;20469;-69
2024/01/20 04:58:10;;;;;;;12.10;11.70;;;-6.20;99.90;;;;;;5082185;28;20458;-68
2024/01/20 05:00:37;;;;;;;12.23;11.83;;;-6.20;99.90;;;;;;5082497;28;20472;-69
2024/01/20 05:03:05;;;;;;;10.97;10.67;;;-6.10;99.90;;;;;;5087083;28;20458;-69
2024/01/20 05:05:32;;;;;;;11.60;11.30;;;-6.20;99.90;;;;;;5081419;28;20827;-69
2024/01/20 05:08:00;;;;;;;11.47;11.17;;;-6.30;99.90;;;;;;5070605;28;20950;-68
2024/01/20 05:10:28;;;;;;;12.57;12.17;;;-6.40;99.90;;;;;;5079298;28;20459;-69
2024/01/20 05:12:54;;;;;;;12.40;12.00;;;-6.30;99.90;;;;;;5085929;28;20499;-69
2024/01/20 05:15:22;;;;;;;11.50;11.20;;;-6.20;99.90;;;;;;5077479;28;20468;-70
2024/01/20 05:17:50;;;;;;;12.17;11.77;;;-6.20;99.90;;;;;;5080569;28;20461;-68
2024/01/20 05:20:17;;;;;;;11.60;11.30;;;-6.20;99.90;;;;;;5079958;28;20463;-69
2024/01/20 05:22:44;;;;;;;11.70;11.40;;;-6.20;99.90;;;;;;5081418;28;20536;-69
2024/01/20 05:25:12;;;;;;;12.57;12.17;;;-6.30;99.90;;;;;;5072790;28;20560;-69
2024/01/20 05:27:38;;;;;;;12.20;11.80;;;-6.20;99.90;;;;;;5087657;28;20466;-68
2024/01/20 05:30:06;;;;;;;12.27;11.87;;;-6.20;99.90;;;;;;5077998;28;21047;-69
2024/01/20 05:32:34;;;;;;;12.40;12.00;;;-6.20;99.90;;;;;;5087381;28;20929;-69
2024/01/20 05:35:02;;;;;;;12.20;11.80;;;-6.20;99.90;;;;;;5075238;28;20458;-69
2024/01/20 05:37:28;;;;;;;13.00;12.60;;;-6.20;99.90;;;;;;5087969;28;20461;-69
2024/01/20 05:39:55;;;;;;;12.33;11.97;;;-6.20;99.90;;;;;;5084556;28;20451;-68
2024/01/20 05:42:22;;;;;;;12.70;12.30;;;-6.30;99.90;;;;;;5085474;28;20456;-68
2024/01/20 05:44:48;;;;;;;12.53;12.13;;;-6.30;99.90;;;;;;5080990;28;20965;-69
2024/01/20 05:47:15;;;;;;;12.83;12.43;;;-6.20;99.90;;;;;;5087100;28;20869;-68
2024/01/20 05:49:43;;;;;;;12.67;12.27;;;-6.20;99.90;;;;;;5081955;28;20486;-69
2024/01/20 05:52:11;;;;;;;12.87;12.47;;;-6.10;99.90;;;;;;5081593;28;20490;-68
2024/01/20 05:54:39;;;;;;;12.67;12.27;;;-6.20;99.90;;;;;;5089651;28;20456;-69
2024/01/20 05:57:06;;;;;;;12.33;11.93;;;-6.20;99.90;;;;;;5080821;28;20462;-68
2024/01/20 05:59:34;;;;;;;12.60;12.20;;;-6.20;99.90;;;;;;5088998;28;20455;-69
2024/01/20 06:02:01;;;;;;;12.50;12.10;;;-6.20;99.90;;;;;;5080652;28;20460;-68
2024/01/20 06:04:28;;;;;;;12.17;11.80;;;-6.10;99.90;;;;;;5078822;28;20449;-68
2024/01/20 06:06:56;;;;;;;11.63;11.33;;;-6.10;99.90;;;;;;5075165;28;20458;-68
2024/01/20 06:09:23;;;;;;;12.73;12.33;;;-6.10;99.90;;;;;;5081047;28;20548;-68
2024/01/20 06:11:50;;;;;;;11.50;11.20;;;-6.20;99.90;;;;;;5079192;28;20463;-68
2024/01/20 06:14:17;;;;;;;12.27;11.87;;;-6.30;99.90;;;;;;5079871;28;20874;-68
2024/01/20 06:16:45;;;;;;;12.33;11.93;;;-6.40;99.90;;;;;;5079781;28;21101;-68
2024/01/20 06:19:11;;;;;;;12.33;11.93;;;-6.60;99.90;;;;;;5082414;28;20462;-69
2024/01/20 06:21:38;;;;;;;12.30;11.90;;;-6.60;99.90;;;;;;5085682;28;20501;-69
2024/01/20 06:24:08;;;;;;;12.57;12.17;;;-6.80;99.90;;;;;;5081401;28;20474;-70
2024/01/20 06:26:36;;;;;;;12.63;12.23;;;-6.90;99.90;;;;;;5083653;28;20953;-69
2024/01/20 06:29:04;;;;;;;12.70;12.30;;;-7.00;99.90;;;;;;5082680;28;20458;-68
2024/01/20 06:31:30;;;;;;;12.83;12.43;;;-7.10;99.90;;;;;;5072853;28;20463;-69
2024/01/20 06:33:57;;;;;;;13.73;13.23;;;-7.40;99.90;;;;;;5079835;28;20587;-69
2024/01/20 06:36:26;;;;;;;13.63;13.13;;;-7.50;99.90;;;;;;5081428;28;20475;-68
2024/01/20 06:38:53;;;;;;;13.23;12.83;;;-7.60;99.90;;;;;;5086999;28;20541;-70
2024/01/20 06:41:21;;;;;;;13.70;13.20;;;-7.70;99.90;;;;;;5073940;28;20513;-69
2024/01/20 06:43:48;;;;;;;13.80;13.30;;;-7.80;99.90;;;;;;5080795;28;20477;-69
2024/01/20 06:46:14;;;;;;;13.77;13.27;;;-7.70;99.90;;;;;;5081972;28;20466;-68
2024/01/20 06:48:42;;;;;;;13.60;13.10;;;-7.70;99.90;;;;;;5079607;28;20490;-69
2024/01/20 06:51:14;;;;;;;14.13;13.63;;;-7.60;99.90;;;;;;5086075;28;20459;-69
2024/01/20 06:53:43;;;;;;;14.37;13.87;;;-7.60;99.90;;;;;;5080884;28;20858;-68
2024/01/20 06:56:10;;;;;;;15.10;14.50;;;-7.60;99.90;;;;;;5074449;28;20516;-68
2024/01/20 06:58:39;;;;;;;14.50;14.00;;;-7.90;99.90;;;;;;5083416;28;21436;-68
2024/01/20 07:01:06;;;;;;;15.03;14.43;;;-8.10;99.90;;;;;;5078722;28;20462;-68
2024/01/20 07:03:33;;;;;;;15.03;14.43;;;-8.20;99.90;;;;;;5081999;28;20474;-69
2024/01/20 07:06:00;;;;;;;15.33;14.73;;;-8.40;99.90;;;;;;5084336;28;20486;-69
2024/01/20 07:08:28;;;;;;;15.90;15.30;;;-8.70;99.90;;;;;;5081359;28;20461;-68
2024/01/20 07:10:56;;;;;;;16.00;15.40;;;-8.90;99.90;;;;;;5077944;28;20459;-69
2024/01/20 07:13:22;;;;;;;15.97;15.37;;;-8.90;99.90;;;;;;5081218;28;20491;-70
2024/01/20 07:15:50;;;;;;;16.03;15.43;;;-8.90;99.90;;;;;;5077186;28;20458;-68
2024/01/20 07:18:19;;;;;;;15.60;15.00;;;-8.90;99.90;;;;;;5081785;28;20459;-70
2024/01/20 07:20:45;;;;;;;15.33;14.73;;;-9.00;99.90;;;;;;5075186;28;20470;-69
2024/01/20 07:23:13;;;;;;;16.00;15.40;;;-8.90;99.90;;;;;;5081439;28;20459;-68
2024/01/20 07:25:40;;;;;;;16.07;15.47;;;-8.70;99.90;;;;;;5087703;28;20461;-69
2024/01/20 07:28:07;;;;;;;15.83;15.23;;;-8.60;99.90;;;;;;5081290;28;20554;-68
2024/01/20 07:30:35;;;;;;;14.17;13.67;;;-8.30;99.90;;;;;;5084897;28;20842;-69
2024/01/20 07:33:06;;;;;;;13.40;13.00;;;-7.50;99.90;;;;;;5082849;28;20474;-69
2024/01/20 07:35:33;;;;;;;12.90;12.50;;;-7.10;99.90;;;;;;5074111;28;20450;-68
2024/01/20 07:38:00;;;;;;;12.57;12.17;;;-7.40;99.90;;;;;;5077946;28;20975;-69
2024/01/20 07:40:27;;;;;;;13.30;12.90;;;-7.60;99.90;;;;;;5076559;28;20976;-69
2024/01/20 07:42:53;;;;;;;13.73;13.23;;;-7.80;99.90;;;;;;5080831;28;20470;-68
2024/01/20 07:45:21;;;;;;;13.10;12.70;;;-7.80;99.90;;;;;;5079518;28;20462;-69
2024/01/20 07:47:48;;;;;;;14.43;13.93;;;-7.90;99.90;;;;;;5084761;28;21249;-69
2024/01/20 07:50:16;;;;;;;14.47;13.97;;;-8.00;99.90;;;;;;5084037;28;20479;-69
2024/01/20 07:52:44;;;;;;;13.67;13.27;;;-7.90;99.90;;;;;;5073940;28;20487;-68
2024/01/20 07:55:11;;;;;;;13.10;12.70;;;-7.30;99.90;;;;;;5083333;28;20469;-69
2024/01/20 07:57:40;;;;;;;13.43;13.03;;;-7.20;99.90;;;;;;5078830;28;20826;-69
2024/01/20 08:00:09;;;;;;;13.60;13.20;;;-7.40;99.90;;;;;;5078097;28;20560;-68
2024/01/20 08:02:36;;;;;;;13.50;13.10;;;-7.50;99.90;;;;;;5078767;28;20965;-67
2024/01/20 08:05:03;;;;;;;13.70;13.30;;;-7.40;99.90;;;;;;5085052;28;20486;-68
2024/01/20 08:07:31;;;;;;;13.20;12.80;;;-7.40;99.90;;;;;;5085767;28;20646;-68
2024/01/20 08:09:58;;;;;;;13.63;13.13;;;-7.60;99.90;;;;;;5085109;28;20470;-67
2024/01/20 08:12:25;;;;;;;13.67;13.17;;;-7.70;99.90;;;;;;5087777;28;20459;-67
2024/01/20 08:14:52;;;;;;;14.37;13.87;;;-7.70;99.90;;;;;;5080773;28;20470;-68
2024/01/20 08:17:19;;;;;;;14.00;13.50;;;-7.80;99.90;;;;;;5082328;28;21047;-68
2024/01/20 08:19:48;;;;;;;14.00;13.50;;;-7.60;99.90;;;;;;5078173;28;20604;-68
2024/01/20 08:22:15;;;;;;;12.93;12.53;;;-7.10;99.90;;;;;;5081976;28;20817;-68
2024/01/20 08:24:44;;;;;;;12.60;12.20;;;-6.50;99.90;;;;;;5078638;28;20471;-69
2024/01/20 08:27:10;;;;;;;11.63;11.33;;;-6.00;99.90;;;;;;5077603;28;20462;-68
2024/01/20 08:29:37;;;;;;;11.57;11.27;;;-5.80;99.90;;;;;;5079696;28;20488;-68
2024/01/20 08:32:05;;;;;;;11.63;11.33;;;-5.80;99.90;;;;;;5083458;28;20881;-69
2024/01/20 08:34:31;;;;;;;12.13;11.73;;;-6.10;99.90;;;;;;5079746;28;20517;-68
2024/01/20 08:36:59;;;;;;;12.80;12.40;;;-6.40;99.90;;;;;;5081611;28;20513;-68
2024/01/20 08:39:26;;;;;;;12.27;11.87;;;-6.40;99.90;;;;;;5026864;28;20480;-68
2024/01/20 08:41:55;;;;;;;12.37;11.97;;;-6.40;99.90;;;;;;4994858;28;20482;-68
2024/01/20 08:44:21;;;;;;;13.30;12.90;;;-6.50;99.90;;;;;;5054611;28;20514;-68
2024/01/20 08:46:50;;;;;;;12.40;12.00;;;-6.50;99.90;;;;;;5045693;28;20987;-68
2024/01/20 08:49:16;;;;;;;12.53;12.13;;;-6.50;99.90;;;;;;5047096;28;21010;-68
2024/01/20 08:51:44;;;;;;;12.83;12.43;;;-6.60;99.90;;;;;;5048712;28;20471;-67
2024/01/20 08:54:12;;;;;;;12.93;12.53;;;-6.60;99.90;;;;;;5047966;28;21034;-68
2024/01/20 08:56:38;;;;;;;12.63;12.23;;;-6.60;99.90;;;;;;5044939;28;20467;-68
2024/01/20 08:59:08;;;;;;;13.43;12.93;;;-6.60;99.90;;;;;;5050083;28;20465;-68
2024/01/20 09:01:35;;;;;;;12.93;12.53;;;-6.40;99.90;;;;;;5048880;28;20854;-68
2024/01/20 09:04:02;;;;;;;11.60;11.30;;;-5.90;99.90;;;;;;5049019;28;20475;-68
2024/01/20 09:06:29;;;;;;;11.57;11.27;;;-5.30;99.90;;;;;;5037378;28;20465;-68
2024/01/20 09:08:56;;;;;;;11.60;11.30;;;-5.20;99.90;;;;;;5046249;28;21145;-68
2024/01/20 09:11:23;;;;;;;11.40;11.10;;;-5.40;99.90;;;;;;5043652;28;20460;-68
2024/01/20 09:13:49;;;;;;;12.53;12.13;;;-5.50;99.90;;;;;;5037065;28;20490;-68
2024/01/20 09:16:18;;;;;;;11.47;11.17;;;-5.40;99.90;;;;;;5045481;28;20465;-67
2024/01/20 09:18:45;;;;;;;10.33;10.13;;;-4.70;99.90;;;;;;5051663;28;20513;-68
2024/01/20 09:21:12;;;;;;;10.40;10.20;;;-4.30;99.90;;;;;;5054314;28;20914;-68
2024/01/20 09:23:39;;;;;;;11.10;10.80;;;-4.40;99.90;;;;;;5054165;28;20462;-68
2024/01/20 09:26:06;;;;;;;10.60;10.30;;;-4.40;99.90;;;;;;5046115;28;20482;-68
2024/01/20 09:28:33;;;;;;;10.80;10.50;;;-4.30;99.90;;;;;;5052350;28;20577;-69
2024/01/20 09:31:00;;;;;;;11.47;11.17;;;-4.60;99.90;;;;;;5049265;28;20477;-68
2024/01/20 09:33:28;;;;;;;11.10;10.80;;;-4.40;99.90;;;;;;5052498;28;20484;-68
2024/01/20 09:35:55;;;;;;;11.57;11.27;;;-4.60;99.90;;;;;;5043579;28;20476;-68
2024/01/20 09:38:22;;;;;;;10.87;10.57;;;-4.50;99.90;;;;;;5043634;28;21000;-68
2024/01/20 09:40:49;;;;;;;11.17;10.87;;;-4.10;99.90;;;;;;5049146;28;20835;-68
2024/01/20 09:43:16;;;;;;;10.50;10.30;;;-4.00;99.90;;;;;;5042659;28;20480;-69
2024/01/20 09:45:43;;;;;;;10.40;10.20;;;-4.10;99.90;;;;;;5044079;28;20461;-68
2024/01/20 09:48:10;;;;;;;10.50;10.30;;;-3.80;99.90;;;;;;5043346;28;20505;-68
2024/01/20 09:50:38;;;;;;;10.37;10.17;;;-3.50;99.90;;;;;;5042308;28;20465;-68
2024/01/20 09:53:13;;;;;;;11.00;10.70;;;-3.30;99.90;;;;;;5042149;28;20491;-68
2024/01/20 09:55:41;;;;;;;10.30;10.10;;;-3.30;99.90;;;;;;5046439;28;21292;-68
2024/01/20 09:58:11;;;;;;;10.90;10.60;;;-3.50;99.90;;;;;;5046339;28;20462;-69
2024/01/20 10:00:39;;;;;;;11.33;11.03;;;-3.90;99.90;;;;;;5029932;28;20819;-69
2024/01/20 10:03:08;;;;;;;11.50;11.20;;;-3.60;99.90;;;;;;5045188;28;20499;-68
2024/01/20 10:05:35;;;;;;;11.37;11.07;;;-3.50;99.90;;;;;;5044294;28;20549;-69
2024/01/20 10:08:05;;;;;;;11.37;11.07;;;-3.40;99.90;;;;;;5045304;28;20989;-69
2024/01/20 10:10:32;;;;;;;11.60;11.30;;;-3.60;99.90;;;;;;5036594;28;20482;-69
2024/01/20 10:13:01;;;;;;;11.80;11.50;;;-3.90;99.90;;;;;;5040350;28;20475;-68
2024/01/20 10:15:30;;;;;;;12.50;12.10;;;-3.90;99.90;;;;;;5036942;28;20455;-68
2024/01/20 10:17:57;;;;;;;12.47;12.07;;;-3.80;99.90;;;;;;5032723;28;20465;-68
2024/01/20 10:20:26;;;;;;;12.40;12.00;;;-3.90;99.90;;;;;;5046108;28;20797;-69
2024/01/20 10:22:53;;;;;;;13.23;12.83;;;-4.10;99.90;;;;;;5038589;28;20460;-69
2024/01/20 10:25:21;;;;;;;12.40;12.00;;;-4.10;99.90;;;;;;5033818;28;20470;-70
2024/01/20 10:27:49;;;;;;;12.07;11.70;;;-3.60;99.90;;;;;;5040250;28;20485;-68
2024/01/20 10:30:17;;;;;;;12.23;11.83;;;-3.60;99.90;;;;;;5045178;28;20780;-69
2024/01/20 10:32:44;;;;;;;10.73;10.43;;;-3.30;99.90;;;;;;5040428;28;20470;-69
2024/01/20 10:35:11;;;;;;;10.67;10.37;;;-2.70;99.90;;;;;;5046315;28;20522;-69
2024/01/20 10:37:42;;;;;;;9.90;9.70;;;-2.50;99.90;;;;;;5037776;28;20461;-69
2024/01/20 10:40:11;;;;;;;10.43;10.23;;;-2.40;99.90;;;;;;5038129;28;20448;-69
2024/01/20 10:42:44;;;;;;;10.03;9.83;;;-2.40;99.90;;;;;;5045947;28;20526;-69
2024/01/20 10:45:12;;;;;;;9.80;9.60;;;-2.20;99.90;;;;;;5039240;28;20464;-69
2024/01/20 10:47:45;;;;;;;10.40;10.20;;;-2.10;99.90;;;;;;5042845;28;20495;-70
2024/01/20 10:50:12;;;;;;;9.40;9.20;;;-2.10;99.90;;;;;;5045203;28;20482;-69
2024/01/20 10:52:39;;;;;;;10.00;9.80;;;-2.00;99.90;;;;;;5034882;28;20465;-69
2024/01/20 10:55:06;;;;;;;9.73;9.53;;;-2.20;99.90;;;;;;5040151;28;20950;-69
2024/01/20 10:57:33;;;;;;;10.27;10.07;;;-2.00;99.90;;;;;;5039267;28;20907;-69
2024/01/20 11:00:08;;;;;;;9.53;9.33;;;-2.00;99.90;;;;;;5037268;28;20526;-69
2024/01/20 11:02:35;;;;;;;9.57;9.37;;;-1.80;99.90;;;;;;5037149;28;20825;-69
2024/01/20 11:05:03;;;;;;;10.00;9.80;;;-1.50;99.90;;;;;;5030839;28;20981;-70
2024/01/20 11:07:30;;;;;;;9.90;9.70;;;-1.40;99.90;;;;;;5030676;28;20472;-70
2024/01/20 11:09:58;;;;;;;10.03;9.83;;;-1.70;99.90;;;;;;5042444;28;20490;-69
2024/01/20 11:12:25;;;;;;;10.90;10.60;;;-1.90;99.90;;;;;;5041669;28;20836;-69
2024/01/20 11:14:53;;;;;;;11.67;11.37;;;-1.70;99.90;;;;;;5032883;28;20505;-68
2024/01/20 11:17:22;;;;;;;12.80;12.40;;;-1.50;99.90;;;;;;5041065;28;20471;-69
2024/01/20 11:19:50;;;;;;;14.07;13.57;;;-1.30;99.90;;;;;;5040730;28;20969;-70
2024/01/20 11:22:33;;;;;;;15.47;14.87;;;-1.30;99.90;;;;;;5037520;28;20474;-69
2024/01/20 11:25:05;;;;;;;15.43;14.83;;;-0.80;99.90;;;;;;5044871;28;20869;-69
2024/01/20 11:27:33;;;;;;;15.53;14.93;;;-0.50;99.90;;;;;;5045347;28;20831;-70
2024/01/20 11:30:07;;;;;;;15.80;15.20;;;-0.50;99.90;;;;;;5039050;28;20492;-70
2024/01/20 11:32:35;;;;;;;15.53;14.93;;;-0.30;99.90;;;;;;5036343;28;20544;-69
2024/01/20 11:35:17;;;;;;;16.10;15.40;;;0.20;99.90;;;;;;5041364;28;20483;-70
2024/01/20 11:37:44;;;;;;;16.83;16.13;;;0.40;99.90;;;;;;5033461;28;20478;-69
2024/01/20 11:40:12;;;;;;;15.83;15.23;;;0.50;99.90;;;;;;5039347;28;20624;-70
2024/01/20 11:42:39;;;;;;;17.03;16.37;;;0.60;99.90;;;;;;5040875;28;20863;-69
2024/01/20 11:45:07;;;;;;;20.00;19.10;;;0.80;99.90;;;;;;5035956;28;20514;-69
2024/01/20 11:47:35;;;;;;;23.07;21.97;;;1.00;99.90;;;;;;5033889;28;20512;-69
2024/01/20 11:50:03;;;;;;;26.33;24.93;;;1.00;99.90;;;;;;5040099;28;20497;-69
2024/01/20 11:52:30;;;;;;;27.93;26.43;;;1.20;99.90;;;;;;5042039;28;20998;-69
2024/01/20 11:54:57;;;;;;;29.13;27.53;;;1.30;99.90;;;;;;5035756;28;20499;-67
2024/01/20 11:57:26;;;;;;;29.47;27.77;;;1.40;99.90;;;;;;5042862;28;20526;-70
2024/01/20 11:59:53;;;;;;;29.23;27.53;;;1.60;99.90;;;;;;5042337;28;20456;-69
2024/01/20 12:02:21;;;;;;;30.80;29.00;;;1.90;99.90;;;;;;5038001;28;20472;-69
2024/01/20 12:04:50;;;;;;;30.40;28.60;;;2.00;99.90;;;;;;5037997;28;20464;-70
2024/01/20 12:07:18;;;;;;;30.90;29.10;;;1.90;99.90;;;;;;5036490;28;21011;-70
2024/01/20 12:09:45;;;;;;;30.10;28.30;;;1.60;99.90;;;;;;5031362;28;20463;-69
2024/01/20 12:12:13;;;;;;;29.50;27.70;;;1.50;99.90;;;;;;5034366;28;20468;-69
2024/01/20 12:14:42;;;;;;;28.20;26.57;;;1.50;99.90;;;;;;5030633;28;20585;-69
2024/01/20 12:17:09;;;;;;;25.83;24.33;;;1.60;99.90;;;;;;5038767;28;20535;-69
2024/01/20 12:19:38;;;;;;;24.30;22.90;;;1.60;99.90;;;;;;5033103;28;20468;-69
2024/01/20 12:22:06;;;;;;;23.73;22.43;;;1.40;99.90;;;;;;5036920;28;21035;-69
2024/01/20 12:24:33;;;;;;;22.50;21.20;;;1.40;99.90;;;;;;5038697;28;20543;-69
2024/01/20 12:27:02;;;;;;;21.53;20.33;;;1.50;99.90;;;;;;5038216;28;20499;-69
2024/01/20 12:29:30;;;;;;;21.90;20.70;;;1.60;99.90;;;;;;5041610;28;20461;-70
2024/01/20 12:31:57;;;;;;;20.33;19.23;;;1.90;99.90;;;;;;5039620;28;20492;-69